Time;durP1;ratioP1;P1;durP2;ratioP2;P2;SDS_P1;SDS_P2;PMS_P1;PMS_P2;Temp;Humidity;BMP_temperature;BMP_pressure;BME280_temperature;BME280_humidity;BME280_pressure;Samples;Min_cycle;Max_cycle;Signal;HPM_P1;HPM_P2
2021/12/11 00:01:45;;;;;;;2.63;1.98;;;1.70;99.90;;;;;;5049210;28;20036;-81
2021/12/11 00:04:16;;;;;;;4.05;2.22;;;1.70;99.90;;;;;;5065286;28;20433;-80
2021/12/11 00:06:46;;;;;;;;;;;1.70;99.90;;;;;;5062746;28;20055;-81
2021/12/11 00:09:35;;;;;;;3.08;1.95;;;1.70;99.90;;;;;;5086804;28;19996;-80
2021/12/11 00:12:08;;;;;;;3.55;2.10;;;1.70;99.90;;;;;;5077685;28;20149;-81
2021/12/11 00:14:37;;;;;;;4.00;2.40;;;1.70;99.90;;;;;;5062428;28;20031;-80
2021/12/11 00:17:04;;;;;;;2.65;2.08;;;1.70;99.90;;;;;;5073530;28;20056;-81
2021/12/11 00:19:33;;;;;;;2.47;2.03;;;1.70;99.90;;;;;;5044427;28;20032;-81
2021/12/11 00:22:11;;;;;;;3.73;2.33;;;1.70;99.90;;;;;;5048534;28;20585;-81
2021/12/11 00:24:39;;;;;;;4.85;2.30;;;1.70;99.90;;;;;;5045352;28;20024;-82
2021/12/11 00:27:27;;;;;;;3.97;2.53;;;1.70;99.90;;;;;;5046480;28;20112;-81
2021/12/11 00:29:53;;;;;;;3.70;2.40;;;1.70;99.90;;;;;;5068853;28;20024;-81
2021/12/11 00:32:28;;;;;;;4.25;2.50;;;1.70;99.90;;;;;;5076420;28;20024;-80
2021/12/11 00:35:14;;;;;;;4.95;2.80;;;1.60;99.90;;;;;;5064064;23;20373;-82
2021/12/11 00:37:40;;;;;;;4.75;2.60;;;1.70;99.90;;;;;;5065557;28;20174;-82
2021/12/11 00:40:37;;;;;;;3.38;2.42;;;1.70;99.90;;;;;;5086794;28;20048;-82
2021/12/11 00:43:05;;;;;;;4.75;2.40;;;1.70;99.90;;;;;;5058802;28;20051;-82
2021/12/11 00:45:36;;;;;;;4.55;3.03;;;1.70;99.90;;;;;;5062704;28;20142;-82
2021/12/11 00:48:06;;;;;;;5.47;2.90;;;1.70;99.90;;;;;;5063767;28;20127;-82
2021/12/11 00:50:44;;;;;;;5.20;3.05;;;1.70;99.90;;;;;;5066382;28;20414;-82
2021/12/11 00:53:22;;;;;;;4.50;2.67;;;1.70;99.90;;;;;;5071155;28;20040;-82
2021/12/11 00:55:54;;;;;;;4.72;2.75;;;1.70;99.90;;;;;;5090931;28;20047;-83
2021/12/11 00:58:29;;;;;;;4.15;2.80;;;1.70;99.90;;;;;;5042959;28;20059;-82
2021/12/11 01:01:07;;;;;;;4.30;2.95;;;1.70;99.90;;;;;;5063279;28;20119;-82
2021/12/11 01:04:11;;;;;;;5.85;3.28;;;1.70;99.90;;;;;;5087270;28;20025;-82
2021/12/11 01:07:17;;;;;;;5.32;3.15;;;1.70;99.90;;;;;;5014619;28;20033;-82
2021/12/11 01:09:52;;;;;;;5.72;3.00;;;1.70;99.90;;;;;;5068075;28;20644;-82
2021/12/11 01:12:37;;;;;;;7.82;2.60;;;1.70;99.90;;;;;;5094188;28;20032;-82
2021/12/11 01:15:31;;;;;;;4.43;2.70;;;1.70;99.90;;;;;;5061273;28;20082;-82
2021/12/11 01:20:46;;;;;;;5.20;3.10;;;1.70;99.90;;;;;;5079319;28;20032;-82
2021/12/11 01:23:29;;;;;;;6.88;3.55;;;1.70;99.90;;;;;;5095647;28;20028;-82
2021/12/11 01:25:55;;;;;;;5.85;3.05;;;1.70;99.90;;;;;;5069606;28;20039;-83
2021/12/11 01:28:21;;;;;;;5.22;3.10;;;1.70;99.90;;;;;;5065288;28;20096;-82
2021/12/11 01:30:47;;;;;;;4.18;2.90;;;1.70;99.90;;;;;;5100018;28;20077;-82
2021/12/11 01:33:13;;;;;;;6.00;3.67;;;1.70;99.90;;;;;;5066738;28;20059;-82
2021/12/11 01:35:40;;;;;;;4.97;3.28;;;1.70;99.90;;;;;;5058963;28;20063;-83
2021/12/11 01:38:09;;;;;;;4.88;2.88;;;1.70;99.90;;;;;;5076670;28;20033;-82
2021/12/11 01:40:35;;;;;;;5.63;3.22;;;1.70;99.90;;;;;;5069693;28;20029;-82
2021/12/11 01:43:03;;;;;;;6.68;3.72;;;1.70;99.90;;;;;;5070463;28;20063;-82
2021/12/11 01:45:30;;;;;;;6.03;3.20;;;1.70;99.90;;;;;;5069215;28;20399;-83
2021/12/11 01:47:56;;;;;;;4.93;3.53;;;1.70;99.90;;;;;;5079667;28;20036;-82
2021/12/11 01:50:26;;;;;;;5.85;3.88;;;1.70;99.90;;;;;;5064467;28;20040;-82
2021/12/11 01:53:02;;;;;;;7.85;3.58;;;1.70;99.90;;;;;;5079119;28;20029;-82
2021/12/11 01:55:29;;;;;;;6.53;3.83;;;1.70;99.90;;;;;;5065472;28;20123;-82
2021/12/11 01:57:56;;;;;;;5.70;3.70;;;1.70;99.90;;;;;;5080582;28;20025;-83
2021/12/11 02:00:51;;;;;;;6.68;3.78;;;1.70;99.90;;;;;;5068982;28;20040;-82
2021/12/11 02:03:29;;;;;;;6.30;3.78;;;1.70;99.90;;;;;;5090975;28;20075;-82
2021/12/11 02:05:55;;;;;;;6.55;3.92;;;1.80;99.90;;;;;;5075136;28;20039;-82
2021/12/11 02:08:28;;;;;;;6.38;4.00;;;1.80;99.90;;;;;;5068781;28;20119;-82
2021/12/11 02:10:58;;;;;;;7.63;4.22;;;1.70;99.90;;;;;;5075580;28;20552;-83
2021/12/11 02:13:41;;;;;;;7.03;3.70;;;1.70;99.90;;;;;;5076069;28;20297;-82
2021/12/11 02:16:19;;;;;;;7.80;4.72;;;1.80;99.90;;;;;;5073454;28;20091;-82
2021/12/11 02:18:49;;;;;;;9.32;4.68;;;1.80;99.90;;;;;;5062001;28;20047;-83
2021/12/11 02:21:26;;;;;;;6.93;4.50;;;1.80;99.90;;;;;;5082647;28;20440;-82
2021/12/11 02:24:11;;;;;;;8.73;4.82;;;1.80;99.90;;;;;;5083490;28;20032;-82
2021/12/11 02:26:39;;;;;;;7.40;4.38;;;1.80;99.90;;;;;;5078594;28;20402;-83
2021/12/11 02:29:15;;;;;;;7.22;4.55;;;1.80;99.90;;;;;;5100789;28;20439;-82
2021/12/11 02:31:49;;;;;;;7.18;4.78;;;1.80;99.90;;;;;;5077805;28;20232;-82
2021/12/11 02:34:26;;;;;;;7.35;4.25;;;1.80;99.90;;;;;;5100848;28;20054;-82
2021/12/11 02:36:55;;;;;;;9.15;4.68;;;1.80;99.90;;;;;;5057735;28;20045;-83
2021/12/11 02:39:32;;;;;;;8.00;4.82;;;1.80;99.90;;;;;;5086235;28;20020;-83
2021/12/11 02:42:07;;;;;;;8.95;4.70;;;1.80;99.90;;;;;;5080539;28;20033;-83
2021/12/11 02:44:45;;;;;;;6.30;4.05;;;1.80;99.90;;;;;;5060736;28;20025;-82
2021/12/11 02:47:10;;;;;;;7.18;4.25;;;1.80;99.90;;;;;;5052511;28;20060;-82
2021/12/11 02:49:42;;;;;;;8.18;4.28;;;1.80;99.90;;;;;;5086791;28;20016;-82
2021/12/11 02:52:20;;;;;;;9.73;4.53;;;1.80;99.90;;;;;;5088791;28;20032;-82
2021/12/11 02:54:53;;;;;;;8.60;4.78;;;1.80;99.90;;;;;;5080150;28;20519;-82
2021/12/11 02:57:23;;;;;;;11.05;4.90;;;1.80;99.90;;;;;;5080069;28;20025;-83
2021/12/11 02:59:48;;;;;;;7.13;4.13;;;1.80;99.90;;;;;;5063921;28;20027;-82
2021/12/11 03:02:21;;;;;;;9.35;4.80;;;1.80;99.90;;;;;;5072759;28;20091;-82
2021/12/11 03:04:52;;;;;;;10.50;4.95;;;1.80;99.90;;;;;;5059393;28;20032;-83
2021/12/11 03:07:23;;;;;;;10.07;5.25;;;1.80;99.90;;;;;;5084398;28;20025;-82
2021/12/11 03:09:54;;;;;;;8.82;4.40;;;1.80;99.90;;;;;;5094256;28;20048;-82
2021/12/11 03:12:20;;;;;;;;;;;1.80;99.90;;;;;;5054008;28;20044;-82
2021/12/11 03:14:47;;;;;;;8.43;4.82;;;1.80;99.90;;;;;;5083757;28;19972;-82
2021/12/11 03:17:14;;;;;;;9.55;5.25;;;1.80;99.90;;;;;;5094425;28;20039;-82
2021/12/11 03:19:43;;;;;;;10.18;4.68;;;1.80;99.90;;;;;;5063593;28;20101;-83
2021/12/11 03:22:14;;;;;;;12.85;5.40;;;1.80;99.90;;;;;;5079221;28;20036;-82
2021/12/11 03:24:40;;;;;;;10.73;5.43;;;1.80;99.90;;;;;;5084160;28;20070;-82
2021/12/11 03:27:06;;;;;;;12.43;5.93;;;1.80;99.90;;;;;;5068791;28;20543;-82
2021/12/11 03:29:32;;;;;;;11.85;5.60;;;1.80;99.90;;;;;;5088920;28;20028;-82
2021/12/11 03:31:59;;;;;;;13.48;5.25;;;1.80;99.90;;;;;;5048889;28;20029;-83
2021/12/11 03:34:26;;;;;;;10.82;5.78;;;1.80;99.90;;;;;;5075656;28;20058;-83
2021/12/11 03:36:56;;;;;;;11.48;5.88;;;1.80;99.90;;;;;;5079204;28;20047;-82
2021/12/11 03:39:26;;;;;;;12.23;5.72;;;1.80;99.90;;;;;;5072641;28;20387;-82
2021/12/11 03:41:54;;;;;;;11.07;5.47;;;1.80;99.90;;;;;;5034986;28;20029;-82
2021/12/11 03:44:21;;;;;;;11.63;5.90;;;1.80;99.90;;;;;;5082840;28;20032;-82
2021/12/11 03:46:50;;;;;;;13.95;7.07;;;1.80;99.90;;;;;;5056235;28;20062;-82
2021/12/11 03:49:18;;;;;;;12.10;6.38;;;1.80;99.90;;;;;;5085000;28;20029;-82
2021/12/11 03:51:46;;;;;;;12.20;6.45;;;1.80;99.90;;;;;;5067670;28;20043;-83
2021/12/11 03:54:17;;;;;;;14.88;6.45;;;1.90;99.90;;;;;;5066307;28;20033;-82
2021/12/11 03:56:43;;;;;;;14.00;6.70;;;1.80;99.90;;;;;;5076067;28;20029;-83
2021/12/11 03:59:11;;;;;;;14.75;6.43;;;1.90;99.90;;;;;;5066215;28;20407;-82
2021/12/11 04:01:43;;;;;;;11.80;6.28;;;1.90;99.90;;;;;;5066000;28;20099;-82
2021/12/11 04:04:49;;;;;;;11.60;6.20;;;1.90;99.90;;;;;;5075483;28;20032;-83
2021/12/11 04:07:19;;;;;;;10.80;5.45;;;1.90;99.90;;;;;;4991927;28;20053;-82
2021/12/11 04:09:46;;;;;;;11.30;6.28;;;1.90;99.90;;;;;;5025825;28;20601;-82
2021/12/11 04:12:13;;;;;;;11.38;6.13;;;1.90;99.90;;;;;;5046518;28;20047;-83
2021/12/11 04:14:43;;;;;;;12.02;6.13;;;1.90;99.90;;;;;;5068351;28;20048;-83
2021/12/11 04:17:11;;;;;;;11.45;5.82;;;1.90;99.90;;;;;;5069485;28;20415;-82
2021/12/11 04:19:38;;;;;;;11.27;5.80;;;1.90;99.90;;;;;;5082653;28;20028;-82
2021/12/11 04:22:04;;;;;;;10.20;5.35;;;1.90;99.90;;;;;;5073052;28;20038;-82
2021/12/11 04:24:32;;;;;;;12.13;6.40;;;1.90;99.90;;;;;;5071530;28;20085;-82
2021/12/11 04:27:01;;;;;;;9.55;5.40;;;1.90;99.90;;;;;;5049157;28;20048;-83
2021/12/11 04:29:29;;;;;;;9.88;6.03;;;1.80;99.90;;;;;;5065789;28;20040;-83
2021/12/11 04:31:55;;;;;;;13.88;6.78;;;1.80;99.90;;;;;;5049097;28;20033;-82
2021/12/11 04:34:23;;;;;;;13.63;6.00;;;1.80;99.90;;;;;;5065889;28;20041;-83
2021/12/11 04:36:59;;;;;;;10.93;6.00;;;1.80;99.90;;;;;;5033379;28;20033;-82
2021/12/11 04:39:28;;;;;;;13.15;6.65;;;1.80;99.90;;;;;;5064831;28;20053;-82
2021/12/11 04:42:04;;;;;;;13.95;6.53;;;1.80;99.90;;;;;;5080405;28;20167;-82
2021/12/11 04:44:37;;;;;;;11.82;6.25;;;1.80;99.90;;;;;;5071035;28;20103;-82
2021/12/11 04:47:11;;;;;;;16.70;7.00;;;1.80;99.90;;;;;;5058482;28;20744;-83
2021/12/11 04:49:45;;;;;;;14.43;6.90;;;1.80;99.90;;;;;;5067056;28;20044;-82
2021/12/11 04:52:18;;;;;;;14.07;6.47;;;1.80;99.90;;;;;;5085291;28;20024;-82
2021/12/11 04:55:02;;;;;;;17.95;7.03;;;1.80;99.90;;;;;;5075352;28;20033;-82
2021/12/11 05:00:11;;;;;;;17.90;6.75;;;1.80;99.90;;;;;;5087745;28;20120;-82
2021/12/11 05:13:30;;;;;;;15.80;6.90;;;1.80;99.90;;;;;;5028309;28;20103;-82
2021/12/11 05:16:01;;;;;;;20.45;8.35;;;1.80;99.90;;;;;;5081464;28;20043;-82
2021/12/11 05:18:29;;;;;;;17.65;9.10;;;1.80;99.90;;;;;;5060850;28;20044;-82
2021/12/11 05:20:59;;;;;;;15.32;7.28;;;1.80;99.90;;;;;;5062719;28;20033;-82
2021/12/11 05:23:25;;;;;;;19.87;8.07;;;1.80;99.90;;;;;;5071498;28;20032;-82
2021/12/11 05:25:51;;;;;;;18.48;8.07;;;1.80;99.90;;;;;;5064025;28;20021;-82
2021/12/11 05:28:20;;;;;;;12.95;7.32;;;1.80;99.90;;;;;;5061575;28;20029;-82
2021/12/11 05:30:50;;;;;;;16.00;8.10;;;1.80;99.90;;;;;;5062660;28;20078;-82
2021/12/11 05:33:17;;;;;;;16.08;7.35;;;1.80;99.90;;;;;;5063743;28;20468;-82
2021/12/11 05:35:44;;;;;;;15.98;7.60;;;1.80;99.90;;;;;;5048627;28;20053;-82
2021/12/11 05:38:14;;;;;;;15.75;7.15;;;1.80;99.90;;;;;;5078494;28;20051;-83
2021/12/11 05:40:43;;;;;;;15.40;7.35;;;1.70;99.90;;;;;;5075525;28;20028;-83
2021/12/11 05:43:09;;;;;;;13.68;7.43;;;1.70;99.90;;;;;;5067436;28;20032;-83
2021/12/11 05:45:35;;;;;;;15.95;7.20;;;1.70;99.90;;;;;;5073541;28;20551;-82
2021/12/11 05:48:01;;;;;;;16.42;7.50;;;1.70;99.90;;;;;;5091519;28;20032;-82
2021/12/11 05:50:36;;;;;;;16.25;7.00;;;1.70;99.90;;;;;;5053116;28;20062;-83
2021/12/11 05:53:03;;;;;;;14.88;7.00;;;1.70;99.90;;;;;;5101558;28;20155;-82
2021/12/11 05:55:30;;;;;;;15.15;8.07;;;1.70;99.90;;;;;;5070776;28;20032;-82
2021/12/11 05:58:00;;;;;;;19.17;8.75;;;1.60;99.90;;;;;;5082690;28;20044;-82
2021/12/11 06:00:33;;;;;;;15.25;7.63;;;1.60;99.90;;;;;;5083577;28;20469;-82
2021/12/11 06:03:01;;;;;;;15.57;7.15;;;1.60;99.90;;;;;;5061914;28;20029;-83
2021/12/11 06:05:27;;;;;;;13.95;6.60;;;1.50;99.90;;;;;;5069349;28;20035;-82
2021/12/11 06:07:53;;;;;;;13.15;6.57;;;1.50;99.90;;;;;;5068478;28;20042;-82
2021/12/11 06:10:21;;;;;;;14.57;6.88;;;1.50;99.90;;;;;;5065342;28;20087;-82
2021/12/11 06:12:49;;;;;;;13.00;6.97;;;1.50;99.90;;;;;;5069486;28;20039;-82
2021/12/11 06:15:15;;;;;;;15.57;6.97;;;1.40;99.90;;;;;;5089643;28;20043;-83
2021/12/11 06:17:42;;;;;;;16.42;7.45;;;1.40;99.90;;;;;;5088090;28;20019;-82
2021/12/11 06:20:12;;;;;;;17.15;8.13;;;1.40;99.90;;;;;;5069458;28;20395;-82
2021/12/11 06:22:39;;;;;;;16.73;7.77;;;1.40;99.90;;;;;;5077163;28;20468;-82
2021/12/11 06:25:09;;;;;;;20.98;7.72;;;1.40;99.90;;;;;;5077873;28;20092;-82
2021/12/11 06:27:36;;;;;;;17.13;7.70;;;1.40;99.90;;;;;;5056527;28;20032;-82
2021/12/11 06:30:04;;;;;;;18.33;8.40;;;1.40;99.90;;;;;;5099787;28;20426;-82
2021/12/11 06:32:30;;;;;;;16.55;7.70;;;1.40;99.90;;;;;;5059844;28;20032;-82
2021/12/11 06:34:57;;;;;;;19.33;8.48;;;1.40;99.90;;;;;;5065886;23;20545;-81
2021/12/11 06:37:23;;;;;;;19.33;8.35;;;1.40;99.90;;;;;;5044943;28;20040;-81
2021/12/11 06:39:52;;;;;;;15.30;7.50;;;1.40;99.90;;;;;;5048557;28;20066;-80
2021/12/11 06:42:19;;;;;;;14.48;7.60;;;1.40;99.90;;;;;;5050439;28;20024;-80
2021/12/11 06:44:46;;;;;;;20.20;8.13;;;1.40;99.90;;;;;;5041920;28;20028;-81
2021/12/11 06:47:14;;;;;;;17.55;7.78;;;1.40;99.90;;;;;;5050818;28;20060;-81
2021/12/11 06:49:41;;;;;;;17.42;8.20;;;1.40;99.90;;;;;;5062254;28;20790;-81
2021/12/11 06:52:13;;;;;;;15.50;7.90;;;1.40;99.90;;;;;;5070565;28;20483;-81
2021/12/11 06:54:39;;;;;;;17.63;7.90;;;1.40;99.90;;;;;;5058836;28;20029;-80
2021/12/11 06:57:05;;;;;;;15.63;8.07;;;1.40;99.90;;;;;;5057423;28;20498;-80
2021/12/11 06:59:31;;;;;;;17.10;7.40;;;1.40;99.90;;;;;;5040859;28;20402;-80
2021/12/11 07:01:56;;;;;;;13.43;7.78;;;1.40;99.90;;;;;;5034751;28;20044;-80
2021/12/11 07:04:22;;;;;;;16.83;7.85;;;1.40;99.90;;;;;;5013733;28;20033;-81
2021/12/11 07:06:51;;;;;;;16.42;7.85;;;1.40;99.90;;;;;;5005853;28;20030;-81
2021/12/11 07:09:18;;;;;;;15.98;8.50;;;1.40;99.90;;;;;;5036215;28;20037;-81
2021/12/11 07:11:45;;;;;;;14.13;7.65;;;1.40;99.90;;;;;;5038030;28;20033;-81
2021/12/11 07:14:16;;;;;;;18.48;9.32;;;1.40;99.90;;;;;;5046517;28;20547;-81
2021/12/11 07:16:43;;;;;;;19.75;8.27;;;1.50;99.90;;;;;;5013599;28;20498;-81
2021/12/11 07:19:09;;;;;;;14.45;7.93;;;1.50;99.90;;;;;;5027406;28;20029;-81
2021/12/11 07:21:36;;;;;;;15.45;7.20;;;1.50;99.90;;;;;;5058769;28;20471;-81
2021/12/11 07:24:04;;;;;;;14.93;7.65;;;1.50;99.90;;;;;;5056618;28;20082;-81
2021/12/11 07:26:34;;;;;;;19.83;8.50;;;1.50;99.90;;;;;;5053519;28;20129;-81
2021/12/11 07:29:05;;;;;;;17.42;8.40;;;1.50;99.90;;;;;;5070210;28;20048;-81
2021/12/11 07:31:32;;;;;;;14.57;7.30;;;1.50;99.90;;;;;;5070568;28;20117;-81
2021/12/11 07:33:58;;;;;;;17.88;8.98;;;1.50;99.90;;;;;;5041906;28;20030;-81
2021/12/11 07:36:26;;;;;;;22.75;8.80;;;1.50;99.90;;;;;;5031421;28;20124;-81
2021/12/11 07:38:53;;;;;;;15.23;7.57;;;1.50;99.90;;;;;;5048678;28;20082;-81
2021/12/11 07:41:19;;;;;;;18.30;8.65;;;1.50;99.90;;;;;;5056985;28;20026;-80
2021/12/11 07:43:47;;;;;;;17.08;8.10;;;1.50;99.90;;;;;;5033417;28;20031;-81
2021/12/11 07:46:17;;;;;;;18.23;8.13;;;1.50;99.90;;;;;;5071100;28;20410;-80
2021/12/11 07:48:45;;;;;;;16.63;7.90;;;1.50;99.90;;;;;;5048418;28;20113;-81
2021/12/11 07:51:12;;;;;;;20.55;9.02;;;1.50;99.90;;;;;;5018099;28;20465;-80
2021/12/11 07:53:38;;;;;;;18.65;8.15;;;1.60;99.90;;;;;;5051039;28;20025;-81
2021/12/11 07:56:04;;;;;;;17.00;8.20;;;1.60;99.90;;;;;;5043066;28;20504;-82
2021/12/11 07:58:32;;;;;;;18.48;8.45;;;1.60;99.90;;;;;;5034549;28;20033;-82
2021/12/11 08:00:59;;;;;;;17.40;7.50;;;1.60;99.90;;;;;;5045240;28;20060;-82
2021/12/11 08:03:25;;;;;;;15.90;8.18;;;1.70;99.90;;;;;;5033253;28;20040;-81
2021/12/11 08:05:55;;;;;;;16.90;7.75;;;1.70;99.90;;;;;;5052291;28;20479;-82
2021/12/11 08:08:22;;;;;;;16.55;8.13;;;1.70;99.90;;;;;;5029234;28;20037;-82
2021/12/11 08:10:55;;;;;;;17.90;8.57;;;1.80;99.90;;;;;;5052055;28;20035;-82
2021/12/11 08:13:22;;;;;;;17.90;8.88;;;1.80;99.90;;;;;;5038533;28;20086;-82
2021/12/11 08:15:49;;;;;;;16.23;8.68;;;1.80;99.90;;;;;;5050574;28;20024;-82
2021/12/11 08:18:17;;;;;;;20.88;9.35;;;1.80;99.90;;;;;;5034505;28;20124;-81
2021/12/11 08:20:45;;;;;;;19.98;9.00;;;1.80;99.90;;;;;;5037029;28;20036;-82
2021/12/11 08:23:14;;;;;;;18.95;8.85;;;1.90;99.90;;;;;;5019935;28;20060;-81
2021/12/11 08:25:41;;;;;;;18.48;9.13;;;1.90;99.90;;;;;;5023070;28;20036;-82
2021/12/11 08:28:09;;;;;;;17.30;8.45;;;1.90;99.90;;;;;;5039614;28;20035;-82
2021/12/11 08:30:38;;;;;;;19.20;8.68;;;1.90;99.90;;;;;;5044230;28;20044;-82
2021/12/11 08:33:04;;;;;;;19.27;8.52;;;2.00;99.90;;;;;;5033698;28;20084;-81
2021/12/11 08:35:32;;;;;;;17.55;8.50;;;2.00;99.90;;;;;;5043372;28;20044;-81
2021/12/11 08:37:58;;;;;;;16.70;9.15;;;2.00;99.90;;;;;;5068870;28;20028;-81
2021/12/11 08:40:30;;;;;;;18.73;10.05;;;2.00;99.90;;;;;;5057050;28;20021;-80
2021/12/11 08:42:57;;;;;;;17.80;8.18;;;2.10;99.90;;;;;;5036574;28;20416;-80
2021/12/11 08:45:33;;;;;;;17.98;8.50;;;2.10;99.90;;;;;;5023561;28;20029;-80
2021/12/11 08:48:00;;;;;;;17.85;8.00;;;2.10;99.90;;;;;;5056102;28;20159;-80
2021/12/11 08:50:31;;;;;;;17.92;8.38;;;2.10;99.90;;;;;;5063290;28;20087;-80
2021/12/11 08:52:58;;;;;;;17.65;8.35;;;2.20;99.90;;;;;;5039256;28;20047;-80
2021/12/11 08:55:31;;;;;;;19.92;9.15;;;2.20;99.90;;;;;;5054933;28;20558;-80
2021/12/11 08:57:57;;;;;;;19.05;8.73;;;2.20;99.90;;;;;;5034323;28;20411;-80
2021/12/11 09:00:26;;;;;;;15.93;7.88;;;2.20;99.90;;;;;;5038960;28;20033;-80
2021/12/11 09:03:00;;;;;;;21.83;9.27;;;2.20;99.90;;;;;;5031797;28;20034;-80
2021/12/11 09:05:31;;;;;;;18.27;8.98;;;2.10;99.90;;;;;;5039453;28;20559;-82
2021/12/11 09:08:10;;;;;;;20.45;9.35;;;2.10;99.90;;;;;;5056060;28;20060;-82
2021/12/11 09:11:03;;;;;;;18.17;8.30;;;2.00;99.90;;;;;;5017584;28;20029;-81
2021/12/11 09:13:50;;;;;;;20.73;8.93;;;2.00;99.90;;;;;;5030454;28;20074;-82
2021/12/11 09:16:24;;;;;;;22.25;9.45;;;1.90;99.90;;;;;;5061037;28;20504;-82
2021/12/11 09:18:55;;;;;;;21.27;8.52;;;1.90;99.90;;;;;;5040915;28;20029;-82
2021/12/11 09:21:34;;;;;;;23.52;10.20;;;1.90;99.90;;;;;;5051389;28;20027;-82
2021/12/11 09:24:06;;;;;;;19.48;8.80;;;1.90;99.90;;;;;;5053084;28;20037;-81
2021/12/11 09:26:38;;;;;;;24.13;9.45;;;1.90;99.90;;;;;;5071032;28;20397;-81
2021/12/11 09:29:12;;;;;;;18.33;8.85;;;2.00;99.90;;;;;;5071413;28;20327;-82
2021/12/11 09:31:41;;;;;;;24.48;9.10;;;2.00;99.90;;;;;;5071242;28;20025;-82
2021/12/11 09:34:30;;;;;;;23.25;8.98;;;2.00;99.90;;;;;;5071154;28;20369;-82
2021/12/11 09:36:59;;;;;;;22.75;9.75;;;2.00;99.90;;;;;;5071117;28;20029;-82
2021/12/11 09:39:35;;;;;;;22.33;9.27;;;2.00;99.90;;;;;;5071326;28;20434;-82
2021/12/11 09:42:00;;;;;;;25.00;9.73;;;2.00;99.90;;;;;;5041591;28;20029;-82
2021/12/11 09:44:49;;;;;;;23.40;10.13;;;2.10;99.90;;;;;;5050502;28;20032;-82
2021/12/11 09:47:20;;;;;;;20.17;9.32;;;2.00;99.90;;;;;;5032448;28;20040;-83
2021/12/11 09:49:54;;;;;;;21.60;9.35;;;2.00;99.90;;;;;;5034399;28;20033;-82
2021/12/11 09:52:24;;;;;;;22.55;9.45;;;2.00;99.90;;;;;;5051365;28;20031;-82
2021/12/11 09:55:22;;;;;;;22.20;8.98;;;2.00;99.90;;;;;;5052682;28;20032;-82
2021/12/11 09:57:52;;;;;;;26.63;9.80;;;2.10;99.90;;;;;;5019685;28;20033;-82
2021/12/11 10:00:48;;;;;;;20.45;8.95;;;2.10;99.90;;;;;;5018104;28;20095;-83
2021/12/11 10:03:17;;;;;;;19.83;8.65;;;2.10;99.90;;;;;;5033955;28;20484;-82
2021/12/11 10:05:55;;;;;;;19.08;8.95;;;2.10;99.90;;;;;;5051200;28;20074;-82
2021/12/11 10:10:52;;;;;;;23.95;9.45;;;2.20;99.90;;;;;;5035034;28;20245;-82
2021/12/11 10:13:18;;;;;;;21.98;8.95;;;2.20;99.90;;;;;;5034032;28;20083;-82
2021/12/11 10:15:44;;;;;;;23.45;8.60;;;2.30;99.90;;;;;;5018164;28;20037;-82
2021/12/11 10:18:16;;;;;;;21.45;8.90;;;2.30;99.90;;;;;;5050814;28;20025;-82
2021/12/11 10:20:54;;;;;;;25.45;9.38;;;2.30;99.90;;;;;;5051095;28;20032;-82
2021/12/11 10:23:26;;;;;;;22.42;8.38;;;2.40;99.90;;;;;;5051114;28;20031;-82
2021/12/11 10:25:54;;;;;;;25.48;9.13;;;2.40;99.90;;;;;;5035226;28;20039;-82
2021/12/11 10:28:23;;;;;;;24.17;9.15;;;2.40;99.90;;;;;;5035290;28;20033;-82
2021/12/11 10:30:57;;;;;;;18.90;8.07;;;2.40;99.90;;;;;;5034048;28;20029;-82
2021/12/11 10:33:26;;;;;;;17.92;8.23;;;2.50;99.90;;;;;;5034129;28;20028;-82
2021/12/11 10:35:57;;;;;;;19.92;9.13;;;2.70;99.90;;;;;;5033132;28;20090;-82
2021/12/11 10:38:23;;;;;;;19.15;8.88;;;2.80;99.90;;;;;;5049818;28;20032;-82
2021/12/11 10:40:55;;;;;;;16.13;7.18;;;2.90;99.90;;;;;;5033500;28;20387;-83
2021/12/11 10:43:47;;;;;;;15.18;7.30;;;2.90;99.90;;;;;;5033922;28;20092;-82
2021/12/11 10:46:15;;;;;;;17.58;8.05;;;3.00;99.90;;;;;;5050364;28;20372;-82
2021/12/11 10:48:42;;;;;;;17.35;7.93;;;3.00;99.90;;;;;;5033444;28;20033;-82
2021/12/11 10:51:17;;;;;;;16.55;7.78;;;3.00;99.90;;;;;;5050447;28;20108;-82
2021/12/11 10:53:46;;;;;;;15.85;7.78;;;3.10;99.90;;;;;;5033915;28;20029;-82
2021/12/11 10:56:14;;;;;;;19.13;8.77;;;3.20;99.90;;;;;;5033541;28;20120;-82
2021/12/11 10:58:44;;;;;;;20.77;9.05;;;3.30;99.90;;;;;;5034076;28;20036;-82
2021/12/11 11:01:18;;;;;;;21.13;8.93;;;3.40;99.90;;;;;;5034040;28;20575;-82
2021/12/11 11:03:48;;;;;;;18.13;8.30;;;3.50;99.90;;;;;;5049882;28;20111;-82
2021/12/11 11:06:14;;;;;;;17.85;8.75;;;3.60;99.90;;;;;;5049923;28;20476;-82
2021/12/11 11:08:40;;;;;;;19.73;8.30;;;3.70;99.90;;;;;;5033628;28;20056;-82
2021/12/11 11:11:12;;;;;;;15.75;8.02;;;3.90;99.90;;;;;;5033923;28;20032;-82
2021/12/11 11:13:41;;;;;;;15.15;7.68;;;4.00;99.90;;;;;;5049883;28;20025;-82
2021/12/11 11:16:07;;;;;;;17.73;8.07;;;4.00;99.90;;;;;;5033536;28;20405;-82
2021/12/11 11:18:33;;;;;;;23.48;7.82;;;4.00;99.90;;;;;;5041901;28;20028;-84
2021/12/11 11:21:07;;;;;;;18.55;8.65;;;4.10;99.90;;;;;;5053752;28;20132;-82
2021/12/11 11:23:33;;;;;;;16.65;8.27;;;4.20;99.90;;;;;;5046000;28;20022;-83
2021/12/11 11:26:03;;;;;;;16.48;7.57;;;4.30;99.90;;;;;;5049676;28;20368;-84
2021/12/11 11:28:33;;;;;;;13.23;6.55;;;4.40;99.90;;;;;;5018276;28;20037;-90
2021/12/11 11:31:05;;;;;;;13.65;7.25;;;4.40;99.90;;;;;;5068414;28;20054;-90
2021/12/11 11:33:32;;;;;;;15.73;7.18;;;4.40;99.90;;;;;;5062887;28;20083;-90
2021/12/11 11:35:59;;;;;;;16.90;6.75;;;4.30;99.90;;;;;;5053142;28;20055;-90
2021/12/11 11:38:31;;;;;;;14.30;6.80;;;4.30;99.90;;;;;;5039220;28;20116;-89
2021/12/11 11:41:02;;;;;;;15.90;7.22;;;4.20;99.90;;;;;;5048154;28;20021;-89
2021/12/11 11:43:28;;;;;;;13.27;7.15;;;4.10;99.90;;;;;;5016563;28;20029;-90
2021/12/11 11:45:55;;;;;;;17.30;8.73;;;4.10;99.90;;;;;;5015991;28;20021;-91
2021/12/11 11:48:28;;;;;;;20.58;9.65;;;3.90;99.90;;;;;;5018343;28;20183;-90
2021/12/11 11:50:58;;;;;;;16.30;8.40;;;3.80;99.90;;;;;;5032812;28;20052;-78
2021/12/11 11:53:26;;;;;;;17.60;8.68;;;3.70;99.90;;;;;;5032239;28;20155;-79
2021/12/11 11:56:05;;;;;;;17.25;8.88;;;3.60;99.90;;;;;;5053408;28;20036;-82
2021/12/11 11:58:31;;;;;;;21.17;9.50;;;3.50;99.90;;;;;;5049118;28;20426;-82
2021/12/11 12:01:22;;;;;;;23.67;9.57;;;3.50;99.90;;;;;;5070953;28;20029;-82
2021/12/11 12:03:49;;;;;;;21.10;9.57;;;3.40;99.90;;;;;;5005830;28;20461;-83
2021/12/11 12:06:24;;;;;;;16.90;8.25;;;3.40;99.90;;;;;;5035460;28;20029;-82
2021/12/11 12:08:52;;;;;;;16.13;8.07;;;3.30;99.90;;;;;;5035382;28;20116;-82
2021/12/11 12:11:18;;;;;;;15.05;7.00;;;3.20;99.90;;;;;;5051138;28;20071;-82
2021/12/11 12:13:44;;;;;;;18.63;7.45;;;3.20;99.90;;;;;;5038959;28;20029;-82
2021/12/11 12:16:13;;;;;;;21.42;7.95;;;3.10;99.90;;;;;;5050247;28;20036;-82
2021/12/11 12:18:41;;;;;;;18.60;8.93;;;3.10;99.90;;;;;;5035096;28;20029;-82
2021/12/11 12:21:12;;;;;;;16.63;7.47;;;3.10;99.90;;;;;;5032038;28;20034;-83
2021/12/11 12:23:38;;;;;;;17.52;7.10;;;3.10;99.90;;;;;;5011496;28;20043;-83
2021/12/11 12:26:10;;;;;;;15.05;7.53;;;3.10;99.90;;;;;;5056878;28;20033;-83
2021/12/11 12:28:36;;;;;;;16.17;7.28;;;3.00;99.90;;;;;;5036208;28;20036;-83
2021/12/11 12:31:10;;;;;;;18.23;7.15;;;3.00;99.90;;;;;;5050598;28;20042;-83
2021/12/11 12:33:36;;;;;;;15.48;6.55;;;2.90;99.90;;;;;;5035655;28;20038;-83
2021/12/11 12:36:04;;;;;;;21.85;7.85;;;2.90;99.90;;;;;;5061266;23;20044;-82
2021/12/11 12:38:32;;;;;;;15.35;7.05;;;2.90;99.90;;;;;;5053754;28;20029;-82
2021/12/11 12:41:07;;;;;;;18.40;7.68;;;2.80;99.90;;;;;;5056881;28;20025;-83
2021/12/11 12:46:17;;;;;;;16.88;8.13;;;2.80;99.90;;;;;;5051458;28;20057;-83
2021/12/11 12:48:43;;;;;;;18.63;7.47;;;2.80;99.90;;;;;;5018420;28;20044;-82
2021/12/11 12:51:12;;;;;;;29.33;9.00;;;2.80;99.90;;;;;;5054546;28;20108;-83
2021/12/11 12:53:39;;;;;;;18.35;8.38;;;2.80;99.90;;;;;;5044082;28;20040;-82
2021/12/11 12:56:16;;;;;;;18.75;8.65;;;2.80;99.90;;;;;;5047782;28;20029;-82
2021/12/11 12:58:45;;;;;;;19.40;9.45;;;2.90;99.90;;;;;;5051090;28;20032;-83
2021/12/11 13:01:15;;;;;;;17.88;8.55;;;2.90;99.90;;;;;;5056923;28;20523;-82
2021/12/11 13:03:44;;;;;;;43.95;15.40;;;3.00;99.90;;;;;;5034391;28;20032;-82
2021/12/11 13:06:17;;;;;;;25.08;10.07;;;3.00;99.90;;;;;;5050640;28;20450;-82
2021/12/11 13:08:48;;;;;;;27.13;11.18;;;3.00;99.90;;;;;;5047674;28;20590;-82
2021/12/11 13:11:19;;;;;;;30.60;12.65;;;3.00;99.90;;;;;;5043057;28;20063;-83
2021/12/11 13:13:47;;;;;;;47.70;15.57;;;3.10;99.90;;;;;;5051325;28;20039;-82
2021/12/11 13:16:18;;;;;;;42.38;14.98;;;3.10;99.90;;;;;;5051241;28;20037;-82
2021/12/11 13:18:50;;;;;;;24.63;11.45;;;3.10;99.90;;;;;;5038967;28;20498;-83
2021/12/11 13:21:33;;;;;;;27.35;11.10;;;3.20;99.90;;;;;;5054070;28;20087;-83
2021/12/11 13:24:01;;;;;;;23.05;10.75;;;3.20;99.90;;;;;;5054615;28;20404;-82
2021/12/11 13:26:29;;;;;;;22.67;10.82;;;3.20;99.90;;;;;;5020293;28;20517;-82
2021/12/11 13:28:57;;;;;;;20.55;8.88;;;3.20;99.90;;;;;;5038150;28;20037;-82
2021/12/11 13:31:35;;;;;;;18.73;8.40;;;3.10;99.90;;;;;;5034689;28;20162;-83